CXA306 KANP-KBOS
Flight info
| Callsign | CXA306 |
|---|---|
| Flight time | N/A |
| Altitude | 7000 |
| Route | MXE SBJ ORW WOONS2 |
| Aircraft | C208/L-SDFGR/C |
Departure
| Time | 2026-04-11 17:41 |
|---|---|
| Airport | Lee Airport (KANP) |
Arrival
| Time | N/A |
|---|---|
| Airport | Boston Logan International Airport (KBOS) |
| Time | Latitude | Longitude | Altitude | Speed | Heading |
|---|---|---|---|---|---|
| 2026-04-11 17:20 | 38.94162 | -76.56552 | 46 ft | 0 kts | 201° |
| 2026-04-11 17:38 | 38.94161 | -76.56567 | 48 ft | 11 kts | 308° |
| 2026-04-11 17:38 | 38.94181 | -76.56551 | 47 ft | 6 kts | 71° |
| 2026-04-11 17:38 | 38.94166 | -76.56469 | 46 ft | 11 kts | 107° |
| 2026-04-11 17:38 | 38.94165 | -76.56464 | 46 ft | 0 kts | 107° |
| 2026-04-11 17:39 | 38.94165 | -76.56444 | 46 ft | 7 kts | 69° |
| 2026-04-11 17:40 | 38.94189 | -76.56439 | 46 ft | 0 kts | 279° |
| 2026-04-11 17:40 | 38.94190 | -76.56448 | 46 ft | 12 kts | 284° |
| 2026-04-11 17:40 | 38.94303 | -76.56868 | 64 ft | 80 kts | 289° |
| 2026-04-11 17:40 | 38.94463 | -76.57635 | 404 ft | 90 kts | 296° |
| 2026-04-11 17:41 | 38.94968 | -76.57926 | 774 ft | 106 kts | 18° |
| 2026-04-11 17:41 | 38.95457 | -76.57115 | 1001 ft | 135 kts | 70° |
| 2026-04-11 17:41 | 38.95490 | -76.55827 | 1124 ft | 150 kts | 88° |
| 2026-04-11 17:41 | 38.95953 | -76.54791 | 1442 ft | 127 kts | 22° |
| 2026-04-11 17:42 | 38.96704 | -76.54506 | 2152 ft | 99 kts | 19° |
| 2026-04-11 17:42 | 38.97264 | -76.54054 | 2802 ft | 93 kts | 35° |
| 2026-04-11 17:42 | 38.97793 | -76.53456 | 2968 ft | 113 kts | 34° |
| 2026-04-11 17:43 | 38.99315 | -76.52727 | 3484 ft | 125 kts | 12° |
| 2026-04-11 17:43 | 39.00185 | -76.52397 | 3666 ft | 123 kts | 11° |
| 2026-04-11 17:43 | 39.01024 | -76.52287 | 3760 ft | 129 kts | 349° |
| 2026-04-11 17:43 | 39.01852 | -76.52457 | 4139 ft | 109 kts | 0° |
| 2026-04-11 17:44 | 39.02613 | -76.52227 | 4337 ft | 117 kts | 12° |
| 2026-04-11 17:44 | 39.03466 | -76.51967 | 4274 ft | 135 kts | 5° |
| 2026-04-11 17:44 | 39.04378 | -76.51898 | 4482 ft | 125 kts | 352° |
| 2026-04-11 17:44 | 39.05219 | -76.51888 | 4816 ft | 122 kts | 16° |
| 2026-04-11 17:45 | 39.05773 | -76.50965 | 5000 ft | 140 kts | 58° |
| 2026-04-11 17:45 | 39.06297 | -76.49987 | 5165 ft | 137 kts | 33° |
| 2026-04-11 17:45 | 39.06864 | -76.49572 | 5063 ft | 145 kts | 12° |
| 2026-04-11 17:45 | 39.08050 | -76.49685 | 5349 ft | 122 kts | 327° |
| 2026-04-11 17:46 | 39.08815 | -76.50125 | 5292 ft | 138 kts | 10° |
| 2026-04-11 17:46 | 39.09479 | -76.49139 | 5320 ft | 154 kts | 59° |
| 2026-04-11 17:46 | 39.09817 | -76.47893 | 5604 ft | 144 kts | 64° |
| 2026-04-11 17:46 | 39.10079 | -76.47074 | 5586 ft | 150 kts | 54° |
| 2026-04-11 17:47 | 39.10789 | -76.46129 | 5527 ft | 148 kts | 18° |
| 2026-04-11 17:47 | 39.11723 | -76.45903 | 5903 ft | 124 kts | 4° |
| 2026-04-11 17:47 | 39.12449 | -76.45267 | 6114 ft | 130 kts | 37° |
| 2026-04-11 17:47 | 39.13012 | -76.44357 | 6386 ft | 129 kts | 46° |
| 2026-04-11 17:48 | 39.14128 | -76.42631 | 6738 ft | 126 kts | 30° |
| 2026-04-11 17:48 | 39.14822 | -76.41959 | 6891 ft | 123 kts | 21° |
| 2026-04-11 17:48 | 39.15576 | -76.41475 | 7050 ft | 119 kts | 11° |
| 2026-04-11 17:49 | 39.16893 | -76.40022 | 7366 ft | 132 kts | 44° |
| 2026-04-11 17:49 | 39.18482 | -76.38570 | 7069 ft | 151 kts | 2° |
| 2026-04-11 17:50 | 39.19406 | -76.38607 | 7437 ft | 124 kts | 348° |
| 2026-04-11 17:50 | 39.20243 | -76.38300 | 7575 ft | 138 kts | 27° |
| 2026-04-11 17:50 | 39.20946 | -76.37245 | 7364 ft | 167 kts | 45° |
| 2026-04-11 17:50 | 39.21661 | -76.36021 | 7289 ft | 171 kts | 44° |
| 2026-04-11 17:51 | 39.22380 | -76.34833 | 7377 ft | 165 kts | 43° |
| 2026-04-11 17:51 | 39.23789 | -76.32569 | 7596 ft | 154 kts | 41° |
| 2026-04-11 17:51 | 39.24462 | -76.31555 | 7806 ft | 145 kts | 38° |
| 2026-04-11 17:52 | 39.25168 | -76.30640 | 7947 ft | 141 kts | 32° |
| 2026-04-11 17:52 | 39.25863 | -76.29722 | 8069 ft | 144 kts | 42° |
| 2026-04-11 17:52 | 39.26441 | -76.28613 | 8117 ft | 151 kts | 52° |
| 2026-04-11 17:52 | 39.26998 | -76.27510 | 8361 ft | 136 kts | 41° |
| 2026-04-11 17:53 | 39.27546 | -76.26522 | 8503 ft | 141 kts | 47° |
| 2026-04-11 17:53 | 39.28053 | -76.25420 | 8696 ft | 137 kts | 50° |
| 2026-04-11 17:53 | 39.28620 | -76.24531 | 8936 ft | 121 kts | 29° |
| 2026-04-11 17:53 | 39.29268 | -76.23931 | 9150 ft | 111 kts | 13° |
| 2026-04-11 17:54 | 39.29974 | -76.23464 | 9230 ft | 124 kts | 28° |
| 2026-04-11 17:54 | 39.30468 | -76.22515 | 9448 ft | 129 kts | 55° |
| 2026-04-11 17:54 | 39.30895 | -76.21546 | 9655 ft | 120 kts | 36° |
| 2026-04-11 17:54 | 39.31516 | -76.20898 | 9820 ft | 112 kts | 18° |
| 2026-04-11 17:55 | 39.32196 | -76.20420 | 9974 ft | 111 kts | 11° |
| 2026-04-11 17:55 | 39.33043 | -76.20026 | 9578 ft | 150 kts | 8° |
| 2026-04-11 17:55 | 39.34041 | -76.19571 | 9623 ft | 150 kts | 10° |
| 2026-04-11 17:55 | 39.34995 | -76.19114 | 9786 ft | 143 kts | 9° |
| 2026-04-11 17:56 | 39.35908 | -76.18663 | 9937 ft | 140 kts | 13° |
| 2026-04-11 17:56 | 39.36764 | -76.18147 | 10156 ft | 132 kts | 13° |
| 2026-04-11 17:56 | 39.37554 | -76.17622 | 10399 ft | 125 kts | 17° |
| 2026-04-11 17:56 | 39.38264 | -76.16979 | 10567 ft | 129 kts | 31° |
| 2026-04-11 17:57 | 39.38862 | -76.16130 | 10721 ft | 132 kts | 40° |
| 2026-04-11 17:57 | 39.39372 | -76.15180 | 10937 ft | 129 kts | 47° |
| 2026-04-11 17:57 | 39.39790 | -76.14175 | 11161 ft | 122 kts | 50° |
| 2026-04-11 17:57 | 39.40217 | -76.13337 | 11408 ft | 104 kts | 38° |
| 2026-04-11 17:58 | 39.40658 | -76.12481 | 11371 ft | 127 kts | 47° |
| 2026-04-11 17:58 | 39.41075 | -76.11417 | 11434 ft | 135 kts | 48° |
| 2026-04-11 17:58 | 39.41625 | -76.10492 | 11590 ft | 128 kts | 34° |
| 2026-04-11 17:58 | 39.42270 | -76.09754 | 11774 ft | 117 kts | 22° |
| 2026-04-11 17:59 | 39.42900 | -76.09179 | 11980 ft | 109 kts | 18° |
| 2026-04-11 17:59 | 39.43629 | -76.08586 | 11795 ft | 136 kts | 15° |
| 2026-04-11 17:59 | 39.44579 | -76.08052 | 11454 ft | 163 kts | 11° |
| 2026-04-11 17:59 | 39.45636 | -76.07428 | 11457 ft | 164 kts | 19° |
| 2026-04-11 18:00 | 39.46653 | -76.06732 | 11281 ft | 173 kts | 16° |
| 2026-04-11 18:00 | 39.47734 | -76.06056 | 11347 ft | 164 kts | 15° |
| 2026-04-11 18:00 | 39.48713 | -76.05428 | 11586 ft | 149 kts | 15° |
| 2026-04-11 18:00 | 39.49619 | -76.04859 | 11809 ft | 136 kts | 13° |
| 2026-04-11 18:01 | 39.50488 | -76.04361 | 11818 ft | 142 kts | 9° |
| 2026-04-11 18:01 | 39.51427 | -76.03898 | 11817 ft | 148 kts | 9° |
| 2026-04-11 18:01 | 39.52391 | -76.03418 | 11805 ft | 153 kts | 10° |
| 2026-04-11 18:01 | 39.53428 | -76.02804 | 11566 ft | 171 kts | 16° |
| 2026-04-11 18:02 | 39.54518 | -76.02120 | 11462 ft | 173 kts | 16° |
| 2026-04-11 18:02 | 39.55568 | -76.01460 | 11537 ft | 166 kts | 15° |
| 2026-04-11 18:02 | 39.56561 | -76.00722 | 11625 ft | 164 kts | 24° |
| 2026-04-11 18:02 | 39.57463 | -75.99829 | 11711 ft | 162 kts | 27° |
| 2026-04-11 18:03 | 39.58332 | -75.98921 | 11806 ft | 159 kts | 27° |
| 2026-04-11 18:03 | 39.59178 | -75.98036 | 11897 ft | 157 kts | 27° |
| 2026-04-11 18:03 | 39.60024 | -75.97146 | 11996 ft | 156 kts | 27° |
| 2026-04-11 18:03 | 39.60878 | -75.96244 | 11994 ft | 160 kts | 27° |
| 2026-04-11 18:04 | 39.61748 | -75.95329 | 12000 ft | 162 kts | 27° |
| 2026-04-11 18:04 | 39.62630 | -75.94403 | 12004 ft | 164 kts | 27° |
| 2026-04-11 18:04 | 39.63526 | -75.93463 | 12001 ft | 167 kts | 28° |
| 2026-04-11 18:04 | 39.64447 | -75.92544 | 12002 ft | 167 kts | 26° |
| 2026-04-11 18:05 | 39.65382 | -75.91654 | 12003 ft | 167 kts | 25° |
| 2026-04-11 18:05 | 39.66317 | -75.90755 | 12004 ft | 167 kts | 25° |
| 2026-04-11 18:05 | 39.67252 | -75.89848 | 12003 ft | 168 kts | 26° |
| 2026-04-11 18:05 | 39.68189 | -75.88940 | 12004 ft | 168 kts | 26° |
| 2026-04-11 18:06 | 39.69129 | -75.88037 | 12002 ft | 169 kts | 25° |
| 2026-04-11 18:06 | 39.70088 | -75.87121 | 12002 ft | 172 kts | 25° |
| 2026-04-11 18:06 | 39.71064 | -75.86197 | 12004 ft | 175 kts | 26° |
| 2026-04-11 18:06 | 39.72048 | -75.85259 | 12003 ft | 176 kts | 26° |
| 2026-04-11 18:07 | 39.73039 | -75.84319 | 12007 ft | 177 kts | 25° |
| 2026-04-11 18:07 | 39.74040 | -75.83376 | 12004 ft | 178 kts | 25° |
| 2026-04-11 18:07 | 39.75032 | -75.82439 | 12004 ft | 178 kts | 26° |
| 2026-04-11 18:07 | 39.76037 | -75.81489 | 12002 ft | 178 kts | 25° |
| 2026-04-11 18:08 | 39.77034 | -75.80545 | 12025 ft | 177 kts | 25° |
| 2026-04-11 18:08 | 39.78030 | -75.79604 | 12024 ft | 177 kts | 25° |
| 2026-04-11 18:08 | 39.79030 | -75.78659 | 12023 ft | 178 kts | 25° |
| 2026-04-11 18:08 | 39.80031 | -75.77710 | 12028 ft | 178 kts | 25° |
| 2026-04-11 18:09 | 39.81033 | -75.76756 | 12029 ft | 179 kts | 25° |
| 2026-04-11 18:09 | 39.82039 | -75.75798 | 12035 ft | 179 kts | 25° |
| 2026-04-11 18:09 | 39.83032 | -75.74852 | 12044 ft | 179 kts | 25° |
| 2026-04-11 18:09 | 39.84054 | -75.73879 | 12037 ft | 179 kts | 25° |
| 2026-04-11 18:10 | 39.85048 | -75.72937 | 12046 ft | 180 kts | 25° |
| 2026-04-11 18:10 | 39.86054 | -75.71976 | 12037 ft | 179 kts | 25° |
| 2026-04-11 18:10 | 39.87061 | -75.71015 | 12037 ft | 179 kts | 25° |
| 2026-04-11 18:10 | 39.88062 | -75.70058 | 12043 ft | 179 kts | 25° |
| 2026-04-11 18:11 | 39.89070 | -75.69095 | 12040 ft | 180 kts | 25° |
| 2026-04-11 18:11 | 39.90076 | -75.68131 | 12046 ft | 179 kts | 25° |
| 2026-04-11 18:11 | 39.91077 | -75.67175 | 12041 ft | 178 kts | 25° |
| 2026-04-11 18:11 | 39.92095 | -75.66244 | 12038 ft | 178 kts | 25° |
| 2026-04-11 18:12 | 39.93056 | -75.65189 | 12045 ft | 183 kts | 35° |
| 2026-04-11 18:12 | 39.93867 | -75.63867 | 12045 ft | 189 kts | 44° |
| 2026-04-11 18:12 | 39.94666 | -75.62521 | 12035 ft | 186 kts | 38° |
| 2026-04-11 18:12 | 39.95536 | -75.61290 | 12039 ft | 183 kts | 35° |
| 2026-04-11 18:13 | 39.96457 | -75.60154 | 12042 ft | 182 kts | 31° |
| 2026-04-11 18:13 | 39.97383 | -75.59059 | 12041 ft | 182 kts | 31° |
| 2026-04-11 18:13 | 39.98323 | -75.57945 | 12045 ft | 182 kts | 31° |
| 2026-04-11 18:13 | 39.99250 | -75.56820 | 12039 ft | 184 kts | 36° |
| 2026-04-11 18:14 | 40.00089 | -75.55542 | 12040 ft | 184 kts | 38° |
| 2026-04-11 18:14 | 40.00948 | -75.54303 | 12041 ft | 184 kts | 37° |
| 2026-04-11 18:14 | 40.01816 | -75.53092 | 12040 ft | 182 kts | 35° |
| 2026-04-11 18:14 | 40.02706 | -75.51926 | 12042 ft | 181 kts | 34° |
| 2026-04-11 18:15 | 40.03576 | -75.50724 | 12045 ft | 183 kts | 37° |
| 2026-04-11 18:15 | 40.04427 | -75.49481 | 12046 ft | 184 kts | 37° |
| 2026-04-11 18:15 | 40.05288 | -75.48232 | 12045 ft | 184 kts | 37° |
| 2026-04-11 18:15 | 40.06133 | -75.47004 | 12044 ft | 185 kts | 37° |
| 2026-04-11 18:16 | 40.07005 | -75.45736 | 12042 ft | 186 kts | 37° |
| 2026-04-11 18:16 | 40.07899 | -75.44572 | 12045 ft | 181 kts | 28° |
| 2026-04-11 18:16 | 40.08857 | -75.43501 | 12036 ft | 183 kts | 33° |
| 2026-04-11 18:16 | 40.09761 | -75.42311 | 12038 ft | 183 kts | 34° |
| 2026-04-11 18:17 | 40.10657 | -75.41127 | 12033 ft | 184 kts | 34° |
| 2026-04-11 18:17 | 40.11554 | -75.39942 | 12034 ft | 183 kts | 34° |
| 2026-04-11 18:17 | 40.12439 | -75.38732 | 12034 ft | 185 kts | 38° |
| 2026-04-11 18:17 | 40.13278 | -75.37477 | 12037 ft | 185 kts | 37° |
| 2026-04-11 18:18 | 40.14137 | -75.36218 | 12035 ft | 186 kts | 37° |
| 2026-04-11 18:18 | 40.14998 | -75.34958 | 12033 ft | 186 kts | 37° |
| 2026-04-11 18:18 | 40.15858 | -75.33700 | 12035 ft | 186 kts | 37° |
| 2026-04-11 18:18 | 40.16717 | -75.32440 | 12036 ft | 185 kts | 37° |
| 2026-04-11 18:19 | 40.17596 | -75.31215 | 12037 ft | 183 kts | 34° |
| 2026-04-11 18:19 | 40.18497 | -75.30008 | 12035 ft | 184 kts | 36° |
| 2026-04-11 18:19 | 40.19368 | -75.28773 | 12036 ft | 185 kts | 36° |
| 2026-04-11 18:19 | 40.20234 | -75.27537 | 12034 ft | 183 kts | 36° |
| 2026-04-11 18:20 | 40.21082 | -75.26326 | 12035 ft | 183 kts | 36° |
| 2026-04-11 18:20 | 40.21942 | -75.25095 | 12037 ft | 183 kts | 36° |
| 2026-04-11 18:20 | 40.22802 | -75.23863 | 12038 ft | 183 kts | 36° |
| 2026-04-11 18:20 | 40.23661 | -75.22630 | 12035 ft | 184 kts | 36° |
| 2026-04-11 18:21 | 40.24522 | -75.21395 | 12035 ft | 183 kts | 36° |
| 2026-04-11 18:21 | 40.25381 | -75.20161 | 12026 ft | 183 kts | 36° |
| 2026-04-11 18:21 | 40.26226 | -75.18945 | 12025 ft | 182 kts | 36° |
| 2026-04-11 18:21 | 40.27080 | -75.17715 | 12029 ft | 182 kts | 36° |
| 2026-04-11 18:22 | 40.27940 | -75.16482 | 12024 ft | 182 kts | 36° |
| 2026-04-11 18:22 | 40.28795 | -75.15252 | 12028 ft | 182 kts | 36° |
| 2026-04-11 18:22 | 40.29651 | -75.14024 | 12026 ft | 183 kts | 36° |
| 2026-04-11 18:22 | 40.30510 | -75.12792 | 12029 ft | 183 kts | 36° |
| 2026-04-11 18:23 | 40.31369 | -75.11550 | 12026 ft | 183 kts | 36° |
| 2026-04-11 18:23 | 40.32215 | -75.10334 | 12027 ft | 183 kts | 36° |
| 2026-04-11 18:23 | 40.33073 | -75.09099 | 12026 ft | 183 kts | 36° |
| 2026-04-11 18:23 | 40.33935 | -75.07857 | 12028 ft | 183 kts | 36° |
| 2026-04-11 18:24 | 40.34794 | -75.06621 | 12026 ft | 183 kts | 36° |
| 2026-04-11 18:24 | 40.35652 | -75.05380 | 12024 ft | 183 kts | 36° |
| 2026-04-11 18:24 | 40.36509 | -75.04142 | 12029 ft | 183 kts | 36° |
| 2026-04-11 18:24 | 40.37355 | -75.02921 | 12030 ft | 183 kts | 36° |
| 2026-04-11 18:25 | 40.37939 | -75.02080 | 12025 ft | 185 kts | 36° |
| 2026-04-11 18:25 | 40.39088 | -75.00421 | 12024 ft | 185 kts | 36° |
| 2026-04-11 18:25 | 40.39958 | -74.99173 | 12022 ft | 185 kts | 36° |
| 2026-04-11 18:26 | 40.41402 | -74.97086 | 12018 ft | 186 kts | 36° |
| 2026-04-11 18:26 | 40.42555 | -74.95421 | 12019 ft | 185 kts | 36° |
| 2026-04-11 18:26 | 40.43146 | -74.94574 | 12025 ft | 186 kts | 36° |
| 2026-04-11 18:26 | 40.44009 | -74.93336 | 12018 ft | 186 kts | 36° |
| 2026-04-11 18:27 | 40.44882 | -74.92087 | 12005 ft | 186 kts | 36° |
| 2026-04-11 18:27 | 40.45756 | -74.90830 | 12007 ft | 186 kts | 36° |
| 2026-04-11 18:27 | 40.46624 | -74.89577 | 12008 ft | 185 kts | 36° |
| 2026-04-11 18:27 | 40.47492 | -74.88322 | 12011 ft | 185 kts | 36° |
| 2026-04-11 18:28 | 40.48639 | -74.86668 | 12008 ft | 185 kts | 36° |
| 2026-04-11 18:28 | 40.49225 | -74.85823 | 12006 ft | 185 kts | 36° |
| 2026-04-11 18:28 | 40.50090 | -74.84573 | 12006 ft | 185 kts | 36° |
| 2026-04-11 18:28 | 40.50943 | -74.83341 | 12011 ft | 184 kts | 36° |
| 2026-04-11 18:29 | 40.51807 | -74.82092 | 12006 ft | 185 kts | 36° |
| 2026-04-11 18:29 | 40.52675 | -74.80837 | 12009 ft | 184 kts | 36° |
| 2026-04-11 18:29 | 40.53565 | -74.79636 | 12004 ft | 181 kts | 31° |
| 2026-04-11 18:29 | 40.54485 | -74.78502 | 12005 ft | 181 kts | 31° |
| 2026-04-11 18:30 | 40.55410 | -74.77365 | 12006 ft | 181 kts | 31° |
| 2026-04-11 18:30 | 40.56332 | -74.76231 | 12007 ft | 181 kts | 31° |
| 2026-04-11 18:30 | 40.57260 | -74.75158 | 12010 ft | 178 kts | 25° |
| 2026-04-11 18:30 | 40.58257 | -74.74168 | 12010 ft | 178 kts | 26° |
| 2026-04-11 18:31 | 40.59162 | -74.73041 | 12011 ft | 184 kts | 34° |
| 2026-04-11 18:31 | 40.60022 | -74.71779 | 12006 ft | 190 kts | 46° |
| 2026-04-11 18:31 | 40.60624 | -74.70184 | 12010 ft | 196 kts | 57° |
| 2026-04-11 18:31 | 40.61141 | -74.68513 | 12007 ft | 200 kts | 65° |
| 2026-04-11 18:32 | 40.61383 | -74.66684 | 12008 ft | 205 kts | 76° |
| 2026-04-11 18:32 | 40.61565 | -74.64824 | 12008 ft | 205 kts | 74° |
| 2026-04-11 18:32 | 40.61924 | -74.63042 | 12005 ft | 199 kts | 61° |
| 2026-04-11 18:32 | 40.62495 | -74.61419 | 12008 ft | 194 kts | 51° |
| 2026-04-11 18:33 | 40.63143 | -74.59863 | 12007 ft | 194 kts | 51° |
| 2026-04-11 18:33 | 40.63792 | -74.58308 | 12006 ft | 193 kts | 51° |
| 2026-04-11 18:33 | 40.64464 | -74.56776 | 12007 ft | 192 kts | 48° |
| 2026-04-11 18:33 | 40.65158 | -74.55272 | 12008 ft | 191 kts | 48° |
| 2026-04-11 18:34 | 40.65850 | -74.53771 | 12006 ft | 191 kts | 48° |
| 2026-04-11 18:34 | 40.66457 | -74.52191 | 12006 ft | 194 kts | 55° |
| 2026-04-11 18:34 | 40.67042 | -74.50589 | 12010 ft | 194 kts | 53° |
| 2026-04-11 18:34 | 40.67629 | -74.48989 | 12022 ft | 194 kts | 53° |
| 2026-04-11 18:35 | 40.68209 | -74.47399 | 12023 ft | 194 kts | 53° |
| 2026-04-11 18:35 | 40.68791 | -74.45797 | 12024 ft | 193 kts | 54° |
| 2026-04-11 18:35 | 40.69370 | -74.44209 | 12024 ft | 192 kts | 53° |
| 2026-04-11 18:35 | 40.69944 | -74.42624 | 12023 ft | 192 kts | 54° |
| 2026-04-11 18:36 | 40.70525 | -74.41035 | 12026 ft | 193 kts | 53° |
| 2026-04-11 18:36 | 40.71109 | -74.39445 | 12027 ft | 194 kts | 53° |
| 2026-04-11 18:36 | 40.71698 | -74.37841 | 12029 ft | 194 kts | 54° |
| 2026-04-11 18:36 | 40.72287 | -74.36237 | 12026 ft | 195 kts | 53° |
| 2026-04-11 18:37 | 40.72873 | -74.34643 | 12026 ft | 195 kts | 54° |
| 2026-04-11 18:37 | 40.73464 | -74.33038 | 12025 ft | 194 kts | 53° |
| 2026-04-11 18:37 | 40.74053 | -74.31435 | 12027 ft | 194 kts | 54° |
| 2026-04-11 18:37 | 40.74640 | -74.29842 | 12026 ft | 193 kts | 53° |
| 2026-04-11 18:38 | 40.75232 | -74.28237 | 12006 ft | 195 kts | 53° |
| 2026-04-11 18:38 | 40.75820 | -74.26627 | 12005 ft | 195 kts | 54° |
| 2026-04-11 18:38 | 40.76405 | -74.25023 | 12008 ft | 194 kts | 53° |
| 2026-04-11 18:38 | 40.76994 | -74.23412 | 12007 ft | 195 kts | 53° |
| 2026-04-11 18:39 | 40.77575 | -74.21819 | 12007 ft | 195 kts | 53° |
| 2026-04-11 18:39 | 40.78164 | -74.20197 | 12008 ft | 195 kts | 53° |
| 2026-04-11 18:39 | 40.78752 | -74.18584 | 12009 ft | 195 kts | 53° |
| 2026-04-11 18:39 | 40.79343 | -74.16969 | 12001 ft | 195 kts | 53° |
| 2026-04-11 18:40 | 40.79821 | -74.15663 | 11997 ft | 195 kts | 53° |
| 2026-04-11 18:40 | 40.80410 | -74.14046 | 12000 ft | 195 kts | 53° |
| 2026-04-11 18:40 | 40.80997 | -74.12435 | 12002 ft | 195 kts | 53° |
| 2026-04-11 18:40 | 40.81588 | -74.10818 | 12000 ft | 195 kts | 53° |
| 2026-04-11 18:41 | 40.82181 | -74.09195 | 11999 ft | 195 kts | 53° |
| 2026-04-11 18:41 | 40.82763 | -74.07600 | 11997 ft | 195 kts | 53° |
| 2026-04-11 18:41 | 40.83352 | -74.05983 | 12001 ft | 195 kts | 53° |
| 2026-04-11 18:41 | 40.83941 | -74.04367 | 11998 ft | 196 kts | 53° |
| 2026-04-11 18:42 | 40.84533 | -74.02746 | 12002 ft | 196 kts | 53° |
| 2026-04-11 18:42 | 40.85126 | -74.01120 | 12000 ft | 196 kts | 53° |
| 2026-04-11 18:42 | 40.85721 | -73.99490 | 11998 ft | 197 kts | 53° |
| 2026-04-11 18:42 | 40.86317 | -73.97858 | 12002 ft | 198 kts | 53° |
| 2026-04-11 18:43 | 40.86917 | -73.96216 | 11995 ft | 198 kts | 53° |
| 2026-04-11 18:43 | 40.87515 | -73.94573 | 11996 ft | 198 kts | 53° |
| 2026-04-11 18:43 | 40.88111 | -73.92944 | 11997 ft | 197 kts | 53° |
| 2026-04-11 18:43 | 40.88702 | -73.91335 | 11999 ft | 197 kts | 53° |
| 2026-04-11 18:44 | 40.89301 | -73.89702 | 11995 ft | 197 kts | 53° |
| 2026-04-11 18:44 | 40.89896 | -73.88067 | 11999 ft | 197 kts | 53° |
| 2026-04-11 18:44 | 40.90488 | -73.86438 | 11999 ft | 196 kts | 53° |
| 2026-04-11 18:44 | 40.91080 | -73.84809 | 11998 ft | 196 kts | 53° |
| 2026-04-11 18:45 | 40.91676 | -73.83173 | 11998 ft | 197 kts | 53° |
| 2026-04-11 18:45 | 40.92274 | -73.81540 | 11999 ft | 198 kts | 53° |
| 2026-04-11 18:45 | 40.92876 | -73.79895 | 11988 ft | 198 kts | 53° |
| 2026-04-11 18:45 | 40.93478 | -73.78255 | 11990 ft | 198 kts | 53° |
| 2026-04-11 18:46 | 40.94051 | -73.76596 | 11990 ft | 199 kts | 56° |
| 2026-04-11 18:46 | 40.94587 | -73.74940 | 11991 ft | 198 kts | 56° |
| 2026-04-11 18:46 | 40.95139 | -73.73267 | 11989 ft | 198 kts | 54° |
| 2026-04-11 18:46 | 40.95774 | -73.71664 | 11988 ft | 197 kts | 51° |
| 2026-04-11 18:47 | 40.96397 | -73.70044 | 11989 ft | 197 kts | 52° |
| 2026-04-11 18:47 | 40.97012 | -73.68424 | 11990 ft | 197 kts | 52° |
| 2026-04-11 18:47 | 40.97626 | -73.66803 | 11990 ft | 197 kts | 52° |
| 2026-04-11 18:47 | 40.98199 | -73.65151 | 11989 ft | 199 kts | 57° |
| 2026-04-11 18:48 | 40.98716 | -73.63451 | 11990 ft | 198 kts | 57° |
| 2026-04-11 18:48 | 40.99246 | -73.61796 | 11990 ft | 198 kts | 56° |
| 2026-04-11 18:48 | 40.99784 | -73.60123 | 11991 ft | 197 kts | 56° |
| 2026-04-11 18:48 | 41.00321 | -73.58450 | 11992 ft | 197 kts | 56° |
| 2026-04-11 18:49 | 41.00862 | -73.56771 | 11986 ft | 198 kts | 56° |
| 2026-04-11 18:49 | 41.01404 | -73.55092 | 11986 ft | 198 kts | 56° |
| 2026-04-11 18:49 | 41.01947 | -73.53421 | 11987 ft | 196 kts | 54° |
| 2026-04-11 18:49 | 41.02610 | -73.51871 | 11985 ft | 191 kts | 45° |
| 2026-04-11 18:50 | 41.03342 | -73.50407 | 11984 ft | 191 kts | 46° |
| 2026-04-11 18:50 | 41.03956 | -73.48836 | 11984 ft | 197 kts | 56° |
| 2026-04-11 18:50 | 41.04516 | -73.47187 | 11986 ft | 195 kts | 51° |
| 2026-04-11 18:50 | 41.05135 | -73.45588 | 11986 ft | 196 kts | 53° |
| 2026-04-11 18:51 | 41.05714 | -73.43952 | 11986 ft | 197 kts | 56° |
| 2026-04-11 18:51 | 41.06276 | -73.42292 | 11981 ft | 197 kts | 53° |
| 2026-04-11 18:51 | 41.06870 | -73.40658 | 11981 ft | 196 kts | 53° |
| 2026-04-11 18:51 | 41.07465 | -73.39030 | 11975 ft | 196 kts | 53° |
| 2026-04-11 18:52 | 41.08055 | -73.37396 | 11975 ft | 196 kts | 54° |
| 2026-04-11 18:52 | 41.08620 | -73.35744 | 11974 ft | 197 kts | 54° |